createdAt,value
2022-12-29T00:02:04.413Z,97616.94
2022-12-29T00:04:31.062Z,97633.66
2022-12-29T00:06:57.920Z,97634.47
2022-12-29T00:09:24.459Z,97622.19
2022-12-29T00:11:51.217Z,97621.34
2022-12-29T00:14:36.202Z,97609.84
2022-12-29T00:17:03.228Z,97610.75
2022-12-29T00:19:52.833Z,97612.44
2022-12-29T00:22:38.209Z,97612.44
2022-12-29T00:25:24.129Z,97608.03
2022-12-29T00:28:09.100Z,97613.31
2022-12-29T00:30:55.431Z,97601.84
2022-12-29T00:33:44.894Z,97601.69
2022-12-29T00:36:44.744Z,97630.78
2022-12-29T00:39:33.806Z,97607.84
2022-12-29T00:42:26.789Z,97612.16
2022-12-29T00:44:53.425Z,97606.81
2022-12-29T00:47:19.951Z,97602.44
2022-12-29T00:49:46.584Z,97598.00
2022-12-29T00:52:13.993Z,97610.28
2022-12-29T00:54:42.005Z,97612.97
2022-12-29T00:57:10.356Z,97616.47
2022-12-29T00:59:41.072Z,97597.13
2022-12-29T01:02:08.380Z,97616.41
2022-12-29T01:04:35.824Z,97613.72
2022-12-29T01:07:02.363Z,97611.19
2022-12-29T01:09:47.475Z,97622.63
2022-12-29T01:12:14.342Z,97618.19
2022-12-29T01:14:44.369Z,97602.31
2022-12-29T01:17:10.869Z,97592.69
2022-12-29T01:19:37.329Z,97616.38
2022-12-29T01:22:03.835Z,97613.66
2022-12-29T01:24:30.354Z,97603.94
2022-12-29T01:26:56.845Z,97587.19
2022-12-29T01:29:24.092Z,97598.56
2022-12-29T01:31:51.123Z,97606.47
2022-12-29T01:34:18.750Z,97604.78
2022-12-29T01:36:45.336Z,97597.84
2022-12-29T01:39:11.912Z,97594.31
2022-12-29T01:41:38.484Z,97586.47
2022-12-29T01:44:48.558Z,97568.88
2022-12-29T01:47:31.551Z,97560.78
2022-12-29T01:50:02.201Z,97557.25
2022-12-29T01:52:32.883Z,97550.34
2022-12-29T01:55:00.956Z,97548.63
2022-12-29T01:57:32.413Z,97546.88
2022-12-29T02:00:11.507Z,97546.84
2022-12-29T02:02:38.869Z,97547.63
2022-12-29T02:05:15.159Z,97548.41
2022-12-29T02:07:42.425Z,97558.16
2022-12-29T02:10:09.071Z,97570.41
2022-12-29T02:12:35.743Z,97565.94
2022-12-29T02:15:04.920Z,97558.84
2022-12-29T02:18:16.405Z,97563.16
2022-12-29T02:20:53.656Z,97527.16
2022-12-29T02:23:44.163Z,97542.03
2022-12-29T02:26:10.648Z,97536.88
2022-12-29T02:28:37.063Z,97542.25
2022-12-29T02:31:58.679Z,97538.72
2022-12-29T02:34:34.164Z,97529.75
2022-12-29T02:37:17.619Z,97519.16
2022-12-29T02:40:09.715Z,97505.97
2022-12-29T02:42:55.400Z,97508.59
2022-12-29T02:46:00.550Z,97511.28
2022-12-29T02:48:39.572Z,97489.28
2022-12-29T02:51:10.708Z,97486.69
2022-12-29T02:53:56.967Z,97492.84
2022-12-29T02:56:23.571Z,97494.50
2022-12-29T02:58:50.076Z,97493.41
2022-12-29T03:01:28.338Z,97499.47
2022-12-29T03:04:00.569Z,97513.53
2022-12-29T03:06:53.226Z,97496.88
2022-12-29T03:09:44.556Z,97476.53
2022-12-29T03:12:25.010Z,97485.28
2022-12-29T03:15:23.132Z,97484.34
2022-12-29T03:17:55.155Z,97469.19
2022-12-29T03:20:24.903Z,97484.22
2022-12-29T03:22:54.485Z,97476.44
2022-12-29T03:25:30.038Z,97467.78
2022-12-29T03:28:08.514Z,97467.56
2022-12-29T03:30:36.871Z,97437.69
2022-12-29T03:33:07.024Z,97434.06
2022-12-29T03:35:38.251Z,97433.28
2022-12-29T03:38:23.927Z,97428.16
2022-12-29T03:40:56.283Z,97409.63
2022-12-29T03:43:23.008Z,97402.59
2022-12-29T03:45:51.458Z,97395.72
2022-12-29T03:48:18.025Z,97404.44
2022-12-29T03:50:46.729Z,97407.97
2022-12-29T03:53:13.228Z,97407.78
2022-12-29T03:55:39.756Z,97399.84
2022-12-29T03:58:06.268Z,97399.91
2022-12-29T04:00:32.803Z,97398.06
2022-12-29T04:02:59.461Z,97394.31
2022-12-29T04:05:26.125Z,97385.56
2022-12-29T04:07:52.638Z,97394.44
2022-12-29T04:10:19.118Z,97389.16
2022-12-29T04:12:47.503Z,97392.66
2022-12-29T04:15:14.257Z,97401.34
2022-12-29T04:17:40.710Z,97402.09
2022-12-29T04:20:26.514Z,97401.31
2022-12-29T04:23:03.240Z,97397.75
2022-12-29T04:25:31.031Z,97396.91
2022-12-29T04:27:57.643Z,97383.56
2022-12-29T04:30:24.402Z,97397.63
2022-12-29T04:32:50.849Z,97402.03
2022-12-29T04:35:17.420Z,97390.53
2022-12-29T04:37:44.952Z,97386.19
2022-12-29T04:40:12.078Z,97380.63
2022-12-29T04:42:38.683Z,97392.06
2022-12-29T04:45:05.649Z,97392.94
2022-12-29T04:47:32.115Z,97392.16
2022-12-29T04:49:58.548Z,97383.38
2022-12-29T04:52:25.048Z,97387.84
2022-12-29T04:54:51.515Z,97371.88
2022-12-29T04:57:19.303Z,97392.06
2022-12-29T04:59:45.830Z,97376.97
2022-12-29T05:02:12.414Z,97363.06
2022-12-29T05:04:39.029Z,97366.63
2022-12-29T05:07:05.484Z,97355.22
2022-12-29T05:09:31.975Z,97379.72
2022-12-29T05:11:58.445Z,97361.16
2022-12-29T05:14:24.958Z,97369.94
2022-12-29T05:16:51.512Z,97387.63
2022-12-29T05:19:18.186Z,97368.34
2022-12-29T05:21:45.107Z,97383.25
2022-12-29T05:24:11.644Z,97377.09
2022-12-29T05:26:38.154Z,97390.41
2022-12-29T05:29:04.679Z,97373.78
2022-12-29T05:31:31.271Z,97382.53
2022-12-29T05:33:57.736Z,97372.00
2022-12-29T05:36:24.345Z,97378.16
2022-12-29T05:38:50.839Z,97384.22
2022-12-29T05:41:17.644Z,97363.00
2022-12-29T05:43:44.755Z,97384.88
2022-12-29T05:46:11.353Z,97380.75
2022-12-29T05:48:38.422Z,97371.06
2022-12-29T05:51:05.148Z,97395.63
2022-12-29T05:53:31.767Z,97373.47
2022-12-29T05:55:58.299Z,97377.75
2022-12-29T05:58:24.849Z,97386.63
2022-12-29T06:00:52.198Z,97375.31
2022-12-29T06:03:18.830Z,97378.91
2022-12-29T06:05:47.027Z,97372.63
2022-12-29T06:08:13.800Z,97369.03
2022-12-29T06:10:40.703Z,97387.53
2022-12-29T06:13:07.433Z,97329.56
2022-12-29T06:15:34.924Z,97362.06
2022-12-29T06:18:01.617Z,97365.56
2022-12-29T06:20:28.661Z,97331.31
2022-12-29T06:22:55.133Z,97321.56
2022-12-29T06:25:21.679Z,97332.88
2022-12-29T06:27:48.207Z,97335.59
2022-12-29T06:30:15.799Z,97330.28
2022-12-29T06:32:42.491Z,97356.69
2022-12-29T06:35:09.797Z,97347.91
2022-12-29T06:37:36.524Z,97347.78
2022-12-29T06:40:03.104Z,97353.91
2022-12-29T06:42:31.575Z,97368.94
2022-12-29T06:44:59.841Z,97376.03
2022-12-29T06:47:26.422Z,97373.25
2022-12-29T06:49:52.943Z,97380.31
2022-12-29T06:52:19.589Z,97359.22
2022-12-29T06:54:46.102Z,97408.50
2022-12-29T06:57:12.832Z,97400.56
2022-12-29T06:59:39.433Z,97405.91
2022-12-29T07:02:22.846Z,97388.13
2022-12-29T07:04:50.529Z,97397.78
2022-12-29T07:07:22.949Z,97399.75
2022-12-29T07:09:49.387Z,97397.94
2022-12-29T07:12:15.985Z,97405.59
2022-12-29T07:14:43.690Z,97394.25
2022-12-29T07:17:10.546Z,97401.31
2022-12-29T07:19:37.152Z,97404.81
2022-12-29T07:22:03.613Z,97403.13
2022-12-29T07:24:30.849Z,97400.44
2022-12-29T07:26:57.468Z,97381.03
2022-12-29T07:29:24.205Z,97394.28
2022-12-29T07:31:50.734Z,97390.53
2022-12-29T07:34:18.489Z,97395.78
2022-12-29T07:36:45.079Z,97397.50
2022-12-29T07:39:12.620Z,97397.59
2022-12-29T07:41:39.093Z,97391.53
2022-12-29T07:44:08.367Z,97401.06
2022-12-29T07:46:54.237Z,97395.94
2022-12-29T07:49:21.322Z,97379.34
2022-12-29T07:51:47.801Z,97407.53
2022-12-29T07:54:14.308Z,97394.25
2022-12-29T07:56:41.426Z,97395.16
2022-12-29T07:59:07.911Z,97405.75
2022-12-29T08:01:34.591Z,97415.50
2022-12-29T08:04:01.207Z,97407.53
2022-12-29T08:06:31.701Z,97416.31
2022-12-29T08:09:01.535Z,97433.88
2022-12-29T08:11:30.757Z,97434.81
2022-12-29T08:13:57.255Z,97447.97
2022-12-29T08:16:23.725Z,97416.22
2022-12-29T08:18:50.262Z,97439.94
2022-12-29T08:21:16.740Z,97450.53
2022-12-29T08:23:43.252Z,97454.97
2022-12-29T08:26:11.394Z,97413.53
2022-12-29T08:28:38.140Z,97432.00
2022-12-29T08:31:04.791Z,97432.97
2022-12-29T08:33:31.519Z,97457.59
2022-12-29T08:36:02.810Z,97453.16
2022-12-29T08:38:29.972Z,97460.31
2022-12-29T08:40:57.814Z,97468.19
2022-12-29T08:43:25.139Z,97447.09
2022-12-29T08:45:52.015Z,97465.59
2022-12-29T08:48:20.606Z,97453.28
2022-12-29T08:50:47.697Z,97480.53
2022-12-29T08:53:14.232Z,97455.94
2022-12-29T08:55:40.810Z,97471.78
2022-12-29T08:58:07.314Z,97462.03
2022-12-29T09:00:33.900Z,97434.63
2022-12-29T09:03:00.551Z,97441.63
2022-12-29T09:05:27.141Z,97458.41
2022-12-29T09:07:53.612Z,97462.03
2022-12-29T09:10:20.223Z,97469.13
2022-12-29T09:12:46.977Z,97477.00
2022-12-29T09:15:13.844Z,97460.97
2022-12-29T09:17:46.564Z,97476.69
2022-12-29T09:20:15.021Z,97500.47
2022-12-29T09:22:42.181Z,97507.56
2022-12-29T09:25:10.116Z,97513.69
2022-12-29T09:27:37.159Z,97508.38
2022-12-29T09:30:10.365Z,97513.63
2022-12-29T09:32:41.942Z,97526.88
2022-12-29T09:35:12.573Z,97536.56
2022-12-29T09:37:39.334Z,97528.72
2022-12-29T09:40:07.427Z,97546.38
2022-12-29T09:43:12.128Z,97523.34
2022-12-29T09:45:50.824Z,97532.31
2022-12-29T09:48:21.283Z,97534.22
2022-12-29T09:50:56.440Z,97540.53
2022-12-29T09:53:31.031Z,97540.59
2022-12-29T09:56:01.083Z,97543.31
2022-12-29T09:58:42.463Z,97552.94
2022-12-29T10:01:23.128Z,97555.72
2022-12-29T10:03:52.674Z,97548.81
2022-12-29T10:07:28.546Z,97532.25
2022-12-29T10:10:03.670Z,97527.00
2022-12-29T10:13:00.997Z,97526.97
2022-12-29T10:15:42.858Z,97524.34
2022-12-29T10:18:46.155Z,97527.94
2022-12-29T10:21:58.876Z,97534.94
2022-12-29T10:24:27.668Z,97524.50
2022-12-29T10:26:56.568Z,97534.19
2022-12-29T10:29:34.758Z,97523.63
2022-12-29T10:32:06.781Z,97544.78
2022-12-29T10:34:46.011Z,97539.50
2022-12-29T10:37:18.318Z,97539.53
2022-12-29T10:39:56.280Z,97543.03
2022-12-29T10:42:27.605Z,97537.50
2022-12-29T10:44:59.492Z,97537.31
2022-12-29T10:47:29.244Z,97538.09
2022-12-29T10:49:56.321Z,97528.22
2022-12-29T10:52:24.375Z,97527.31
2022-12-29T10:54:54.789Z,97509.72
2022-12-29T10:57:33.796Z,97533.47
2022-12-29T11:00:00.423Z,97524.44
2022-12-29T11:02:45.382Z,97535.78
2022-12-29T11:05:29.745Z,97539.09
2022-12-29T11:08:02.424Z,97547.94
2022-12-29T11:10:39.764Z,97538.47
2022-12-29T11:13:16.933Z,97536.97
2022-12-29T11:15:49.541Z,97523.97
2022-12-29T11:18:22.862Z,97503.78
2022-12-29T11:20:52.228Z,97522.28
2022-12-29T11:23:41.364Z,97526.75
2022-12-29T11:26:17.752Z,97528.59
2022-12-29T11:29:05.127Z,97512.69
2022-12-29T11:31:31.783Z,97507.44
2022-12-29T11:33:58.276Z,97526.81
2022-12-29T11:36:25.702Z,97516.88
2022-12-29T11:38:55.524Z,97502.69
2022-12-29T11:41:32.159Z,97529.03
2022-12-29T11:44:02.208Z,97507.97
2022-12-29T11:46:32.508Z,97522.81
2022-12-29T11:49:01.497Z,97521.91
2022-12-29T11:51:31.390Z,97528.91
2022-12-29T11:54:00.956Z,97509.38
2022-12-29T11:56:42.234Z,97517.28
2022-12-29T11:59:39.667Z,97515.38
2022-12-29T12:02:21.626Z,97506.53
2022-12-29T12:04:52.027Z,97499.44
2022-12-29T12:07:28.366Z,97516.06
2022-12-29T12:10:06.569Z,97500.16
2022-12-29T12:12:36.806Z,97487.69
2022-12-29T12:15:04.586Z,97508.91
2022-12-29T12:17:40.947Z,97503.69
2022-12-29T12:20:28.650Z,97510.59
2022-12-29T12:23:21.816Z,97510.66
2022-12-29T12:26:06.557Z,97515.97
2022-12-29T12:28:43.191Z,97513.38
2022-12-29T12:31:36.812Z,97503.66
2022-12-29T12:34:10.196Z,97529.25
2022-12-29T12:37:01.705Z,97532.88
2022-12-29T12:39:48.975Z,97532.91
2022-12-29T12:42:25.229Z,97540.88
2022-12-29T12:44:57.647Z,97542.50
2022-12-29T12:47:46.338Z,97544.50
2022-12-29T12:50:36.384Z,97548.03
2022-12-29T12:53:21.653Z,97547.16
2022-12-29T12:56:14.331Z,97543.59
2022-12-29T12:58:58.373Z,97546.31
2022-12-29T13:01:53.444Z,97535.69
2022-12-29T13:04:38.722Z,97558.69
2022-12-29T13:07:45.273Z,97545.50
2022-12-29T13:10:24.296Z,97549.84
2022-12-29T13:12:53.725Z,97547.22
2022-12-29T13:15:47.713Z,97567.56
2022-12-29T13:18:32.971Z,97564.03
2022-12-29T13:21:25.316Z,97567.56
2022-12-29T13:24:00.587Z,97581.66
2022-12-29T13:26:36.692Z,97575.47
2022-12-29T13:29:50.536Z,97587.81
2022-12-29T13:32:45.721Z,97582.56
2022-12-29T13:35:27.513Z,97582.56
2022-12-29T13:37:59.804Z,97597.50
2022-12-29T13:40:31.000Z,97595.78
2022-12-29T13:42:58.519Z,97600.16
2022-12-29T13:45:29.827Z,97605.47
2022-12-29T13:48:01.204Z,97614.34
2022-12-29T13:50:30.993Z,97603.78
2022-12-29T13:52:57.401Z,97621.41
2022-12-29T13:55:30.923Z,97620.59
2022-12-29T13:58:32.665Z,97617.16
2022-12-29T14:01:12.737Z,97625.06
2022-12-29T14:03:49.954Z,97623.31
2022-12-29T14:06:20.164Z,97622.38
2022-12-29T14:08:49.043Z,97625.06
2022-12-29T14:11:17.832Z,97646.22
2022-12-29T14:13:47.123Z,97647.13
2022-12-29T14:16:34.581Z,97652.41
2022-12-29T14:19:35.260Z,97656.75
2022-12-29T14:22:05.501Z,97655.94
2022-12-29T14:24:40.883Z,97653.25
2022-12-29T14:27:10.464Z,97660.34
2022-12-29T14:29:39.878Z,97662.88
2022-12-29T14:32:26.647Z,97655.00
2022-12-29T14:34:58.675Z,97669.00
2022-12-29T14:37:27.028Z,97655.00
2022-12-29T14:40:15.537Z,97659.41
2022-12-29T14:42:43.121Z,97668.22
2022-12-29T14:45:30.841Z,97680.63
2022-12-29T14:47:57.948Z,97676.16
2022-12-29T14:50:42.138Z,97671.75
2022-12-29T14:53:48.678Z,97655.94
2022-12-29T14:56:18.450Z,97669.16
2022-12-29T14:58:47.855Z,97664.84
2022-12-29T15:01:40.341Z,97627.91
2022-12-29T15:04:23.935Z,97670.22
2022-12-29T15:06:51.305Z,97681.69
2022-12-29T15:09:37.351Z,97671.22
2022-12-29T15:12:30.090Z,97690.75
2022-12-29T15:14:59.165Z,97695.38
2022-12-29T15:17:33.791Z,97706.97
2022-12-29T15:20:02.908Z,97706.19
2022-12-29T15:22:31.371Z,97710.66
2022-12-29T15:24:58.852Z,97726.50
2022-12-29T15:27:27.101Z,97730.91
2022-12-29T15:30:02.917Z,97737.13
2022-12-29T15:32:39.552Z,97735.38
2022-12-29T15:35:24.203Z,97737.91
2022-12-29T15:37:50.716Z,97752.81
2022-12-29T15:40:25.304Z,97758.09
2022-12-29T15:43:19.093Z,97768.66
2022-12-29T15:45:45.829Z,97771.34
2022-12-29T15:48:19.314Z,97780.28
2022-12-29T15:50:47.075Z,97779.47
2022-12-29T15:53:25.523Z,97783.03
2022-12-29T15:55:55.874Z,97787.44
2022-12-29T15:58:27.892Z,97778.63
2022-12-29T16:01:04.300Z,97776.97
2022-12-29T16:03:37.347Z,97789.31
2022-12-29T16:06:26.003Z,97795.41
2022-12-29T16:09:07.734Z,97792.72
2022-12-29T16:11:38.715Z,97797.13
2022-12-29T16:14:18.087Z,97804.13
2022-12-29T16:16:48.251Z,97794.50
2022-12-29T16:19:27.649Z,97795.41
2022-12-29T16:22:23.027Z,97813.03
2022-12-29T16:24:49.726Z,97800.59
2022-12-29T16:27:42.540Z,97800.59
2022-12-29T16:30:18.753Z,97797.16
2022-12-29T16:32:50.672Z,97807.72
2022-12-29T16:35:31.093Z,97806.84
2022-12-29T16:38:17.248Z,97795.38
2022-12-29T16:41:04.309Z,97788.38
2022-12-29T16:43:32.604Z,97792.78
2022-12-29T16:45:59.131Z,97798.06
2022-12-29T16:48:39.557Z,97797.16
2022-12-29T16:51:14.870Z,97814.75
2022-12-29T16:53:48.113Z,97807.72
2022-12-29T16:56:21.173Z,97806.81
2022-12-29T16:58:56.999Z,97820.03
2022-12-29T17:01:26.691Z,97812.91
2022-12-29T17:03:56.507Z,97815.63
2022-12-29T17:06:23.831Z,97813.00
2022-12-29T17:08:51.887Z,97813.09
2022-12-29T17:11:43.421Z,97806.97
2022-12-29T17:14:22.513Z,97819.28
2022-12-29T17:16:52.389Z,97824.63
2022-12-29T17:19:31.659Z,97823.72
2022-12-29T17:21:58.183Z,97824.66
2022-12-29T17:24:24.720Z,97824.72
2022-12-29T17:26:54.772Z,97835.28
2022-12-29T17:29:33.632Z,97828.31
2022-12-29T17:32:01.630Z,97826.63
2022-12-29T17:34:28.262Z,97833.66
2022-12-29T17:36:57.819Z,97831.00
2022-12-29T17:39:24.453Z,97837.13
2022-12-29T17:41:57.026Z,97823.03
2022-12-29T17:44:26.718Z,97819.56
2022-12-29T17:46:53.228Z,97823.09
2022-12-29T17:49:19.762Z,97836.31
2022-12-29T17:51:47.712Z,97837.25
2022-12-29T17:54:23.711Z,97849.50
2022-12-29T17:56:50.373Z,97844.16
2022-12-29T17:59:17.453Z,97851.13
2022-12-29T18:01:46.010Z,97844.94
2022-12-29T18:04:20.363Z,97846.69
2022-12-29T18:06:47.852Z,97848.41
2022-12-29T18:09:14.869Z,97850.09
2022-12-29T18:11:43.404Z,97846.56
2022-12-29T18:14:17.183Z,97838.69
2022-12-29T18:16:44.271Z,97850.16
2022-12-29T18:19:12.041Z,97846.63
2022-12-29T18:21:41.625Z,97854.56
2022-12-29T18:24:14.885Z,97851.03
2022-12-29T18:26:41.835Z,97850.19
2022-12-29T18:29:08.409Z,97848.44
2022-12-29T18:31:36.539Z,97855.47
2022-12-29T18:34:13.126Z,97855.50
2022-12-29T18:36:45.545Z,97867.81
2022-12-29T18:39:12.124Z,97860.78
2022-12-29T18:41:38.603Z,97858.09
2022-12-29T18:44:05.243Z,97861.63
2022-12-29T18:46:31.867Z,97858.13
2022-12-29T18:48:58.549Z,97866.06
2022-12-29T18:51:26.554Z,97863.44
2022-12-29T18:53:56.592Z,97874.03
2022-12-29T18:56:27.268Z,97875.78
2022-12-29T18:58:57.041Z,97885.44
2022-12-29T19:01:27.657Z,97877.56
2022-12-29T19:03:57.621Z,97892.44
2022-12-29T19:06:24.136Z,97881.88
2022-12-29T19:08:50.578Z,97879.22
2022-12-29T19:11:17.839Z,97863.44
2022-12-29T19:13:44.393Z,97884.53
2022-12-29T19:16:20.330Z,97885.41
2022-12-29T19:18:58.120Z,97884.50
2022-12-29T19:21:30.511Z,97881.00
2022-12-29T19:23:57.480Z,97887.16
2022-12-29T19:26:34.390Z,97882.75
2022-12-29T19:29:01.052Z,97875.72
2022-12-29T19:31:27.961Z,97884.56
2022-12-29T19:33:54.818Z,97877.50
2022-12-29T19:36:21.994Z,97880.16
2022-12-29T19:38:48.879Z,97889.81
2022-12-29T19:41:15.708Z,97880.16
2022-12-29T19:43:45.179Z,97874.91
2022-12-29T19:46:16.849Z,97852.09
2022-12-29T19:48:43.737Z,97879.41
2022-12-29T19:51:13.565Z,97884.66
2022-12-29T19:53:40.061Z,97886.47
2022-12-29T19:56:08.639Z,97872.44
2022-12-29T19:58:43.844Z,97878.59
2022-12-29T20:01:16.255Z,97882.97
2022-12-29T20:03:43.330Z,97889.19
2022-12-29T20:06:14.507Z,97884.84
2022-12-29T20:08:41.196Z,97895.41
2022-12-29T20:11:13.585Z,97892.78
2022-12-29T20:13:40.713Z,97895.44
2022-12-29T20:16:11.309Z,97903.38
2022-12-29T20:18:41.233Z,97901.66
2022-12-29T20:21:12.024Z,97904.31
2022-12-29T20:23:42.616Z,97899.91
2022-12-29T20:26:13.888Z,97901.66
2022-12-29T20:28:40.656Z,97910.47
2022-12-29T20:31:14.697Z,97909.63
2022-12-29T20:33:41.735Z,97919.31
2022-12-29T20:36:20.250Z,97930.72
2022-12-29T20:38:47.697Z,97921.97
2022-12-29T20:41:14.711Z,97927.19
2022-12-29T20:43:41.957Z,97930.66
2022-12-29T20:46:09.344Z,97940.34
2022-12-29T20:48:36.081Z,97932.41
2022-12-29T20:51:02.591Z,97930.66
2022-12-29T20:53:33.655Z,97923.59
2022-12-29T20:56:04.098Z,97940.31
2022-12-29T20:58:31.170Z,97940.31
2022-12-29T21:01:02.871Z,97939.44
2022-12-29T21:03:30.125Z,97928.88
2022-12-29T21:05:56.695Z,97938.56
2022-12-29T21:08:23.914Z,97936.78
2022-12-29T21:10:51.655Z,97939.44
2022-12-29T21:13:18.993Z,97927.13
2022-12-29T21:15:46.688Z,97941.22
2022-12-29T21:18:13.846Z,97934.22
2022-12-29T21:20:44.312Z,97935.06
2022-12-29T21:23:10.800Z,97937.72
2022-12-29T21:25:42.931Z,97937.69
2022-12-29T21:28:13.333Z,97950.88
2022-12-29T21:30:40.259Z,97961.41
2022-12-29T21:33:09.818Z,97981.59
2022-12-29T21:35:39.295Z,98000.97
2022-12-29T21:38:09.272Z,98006.28
2022-12-29T21:40:46.259Z,98021.31
2022-12-29T21:43:14.449Z,98016.13
2022-12-29T21:45:40.998Z,98015.28
2022-12-29T21:48:24.136Z,98011.78
2022-12-29T21:51:12.717Z,98004.75
2022-12-29T21:53:42.625Z,98008.28
2022-12-29T21:56:18.217Z,98010.91
2022-12-29T21:59:08.191Z,98019.69
2022-12-29T22:01:56.673Z,98012.66
2022-12-29T22:04:44.123Z,98016.16
2022-12-29T22:07:33.702Z,98006.53
2022-12-29T22:10:18.361Z,98003.91
2022-12-29T22:13:03.405Z,98010.03
2022-12-29T22:15:35.945Z,98013.56
2022-12-29T22:18:03.392Z,98025.84
2022-12-29T22:20:32.511Z,98032.00
2022-12-29T22:22:59.473Z,98023.22
2022-12-29T22:25:26.451Z,98024.09
2022-12-29T22:27:58.941Z,98031.09
2022-12-29T22:30:31.003Z,98035.47
2022-12-29T22:32:58.584Z,98021.44
2022-12-29T22:35:32.017Z,98034.63
2022-12-29T22:38:02.128Z,98047.78
2022-12-29T22:40:28.669Z,98044.25
2022-12-29T22:42:55.175Z,98046.03
2022-12-29T22:45:21.868Z,98050.38
2022-12-29T22:47:49.754Z,98047.75
2022-12-29T22:50:16.229Z,98042.47
2022-12-29T22:52:42.705Z,98061.75
2022-12-29T22:55:12.690Z,98053.84
2022-12-29T22:57:39.220Z,98064.41
2022-12-29T23:00:08.479Z,98055.66
2022-12-29T23:02:35.294Z,98058.31
2022-12-29T23:05:04.387Z,98060.91
2022-12-29T23:07:32.604Z,98061.81
2022-12-29T23:09:59.119Z,98064.47
2022-12-29T23:12:31.407Z,98061.78
2022-12-29T23:15:02.160Z,98063.53
2022-12-29T23:17:30.654Z,98060.03
2022-12-29T23:19:57.176Z,98062.66
2022-12-29T23:22:24.919Z,98060.03
2022-12-29T23:24:51.437Z,98061.78
2022-12-29T23:27:18.074Z,98053.03
2022-12-29T23:29:44.566Z,98066.22
2022-12-29T23:32:11.147Z,98071.50
2022-12-29T23:34:37.923Z,98079.38
2022-12-29T23:37:05.042Z,98070.59
2022-12-29T23:39:31.498Z,98089.03
2022-12-29T23:41:58.098Z,98081.13
2022-12-29T23:44:24.598Z,98097.81
2022-12-29T23:46:51.228Z,98089.94
2022-12-29T23:49:17.710Z,98083.78
2022-12-29T23:51:44.262Z,98099.56
2022-12-29T23:54:14.017Z,98110.09
2022-12-29T23:56:40.493Z,98103.06
2022-12-29T23:59:06.966Z,98107.47
